createdAt,value
2023-04-27T00:00:00.033Z,100666.00
2023-04-27T00:02:34.507Z,100661.03
2023-04-27T00:05:11.177Z,100664.37
2023-04-27T00:07:47.243Z,100660.69
2023-04-27T00:10:22.038Z,100664.53
2023-04-27T00:12:56.277Z,100673.91
2023-04-27T00:15:31.361Z,100667.94
2023-04-27T00:18:05.784Z,100665.09
2023-04-27T00:20:41.107Z,100667.41
2023-04-27T00:23:16.912Z,100663.25
2023-04-27T00:25:51.463Z,100653.41
2023-04-27T00:28:25.802Z,100658.56
2023-04-27T00:31:00.481Z,100671.37
2023-04-27T00:33:35.084Z,100661.28
2023-04-27T00:36:10.506Z,100665.97
2023-04-27T00:38:46.353Z,100660.41
2023-04-27T00:41:21.007Z,100662.56
2023-04-27T00:43:55.688Z,100663.91
2023-04-27T00:46:31.056Z,100664.91
2023-04-27T00:49:06.088Z,100668.78
2023-04-27T00:51:40.969Z,100668.22
2023-04-27T00:54:17.259Z,100663.44
2023-04-27T00:56:52.396Z,100662.59
2023-04-27T00:59:26.985Z,100658.75
2023-04-27T01:02:02.361Z,100662.25
2023-04-27T01:04:37.143Z,100670.09
2023-04-27T01:07:11.932Z,100660.34
2023-04-27T01:09:48.309Z,100670.00
2023-04-27T01:12:23.157Z,100668.47
2023-04-27T01:14:57.486Z,100673.97
2023-04-27T01:17:32.244Z,100668.75
2023-04-27T01:20:10.920Z,100669.84
2023-04-27T01:22:46.257Z,100668.25
2023-04-27T01:25:22.190Z,100673.09
2023-04-27T01:27:56.988Z,100680.25
2023-04-27T01:30:31.397Z,100671.28
2023-04-27T01:33:06.516Z,100671.91
2023-04-27T01:35:40.922Z,100680.03
2023-04-27T01:38:15.626Z,100671.66
2023-04-27T01:40:52.771Z,100669.06
2023-04-27T01:43:27.941Z,100672.13
2023-04-27T01:46:07.665Z,100677.66
2023-04-27T01:48:42.848Z,100680.41
2023-04-27T01:51:18.589Z,100674.44
2023-04-27T01:53:53.845Z,100666.94
2023-04-27T01:56:29.568Z,100669.12
2023-04-27T01:59:04.314Z,100664.69
2023-04-27T02:01:38.737Z,100677.59
2023-04-27T02:04:13.928Z,100675.72
2023-04-27T02:06:48.472Z,100682.84
2023-04-27T02:09:23.226Z,100680.69
2023-04-27T02:11:59.309Z,100688.88
2023-04-27T02:14:34.524Z,100684.25
2023-04-27T02:17:09.177Z,100681.47
2023-04-27T02:19:43.640Z,100691.81
2023-04-27T02:22:18.656Z,100693.72
2023-04-27T02:24:53.019Z,100693.16
2023-04-27T02:27:29.562Z,100687.34
2023-04-27T02:30:06.979Z,100682.66
2023-04-27T02:32:42.522Z,100683.22
2023-04-27T02:35:16.959Z,100685.47
2023-04-27T02:37:51.520Z,100687.19
2023-04-27T02:40:26.029Z,100684.78
2023-04-27T02:43:02.018Z,100677.87
2023-04-27T02:45:39.326Z,100680.34
2023-04-27T02:48:13.990Z,100682.75
2023-04-27T02:50:48.330Z,100682.25
2023-04-27T02:53:22.910Z,100699.88
2023-04-27T02:55:58.592Z,100706.75
2023-04-27T02:58:34.805Z,100708.16
2023-04-27T03:01:09.859Z,100708.69
2023-04-27T03:03:47.767Z,100710.84
2023-04-27T03:06:22.236Z,100715.91
2023-04-27T03:08:56.990Z,100717.81
2023-04-27T03:11:31.495Z,100714.59
2023-04-27T03:14:07.770Z,100720.53
2023-04-27T03:16:42.159Z,100722.53
2023-04-27T03:19:17.061Z,100720.81
2023-04-27T03:21:51.593Z,100726.62
2023-04-27T03:24:26.684Z,100721.34
2023-04-27T03:27:02.367Z,100723.47
2023-04-27T03:29:38.354Z,100731.97
2023-04-27T03:32:12.743Z,100724.13
2023-04-27T03:34:47.732Z,100734.91
2023-04-27T03:37:22.086Z,100741.81
2023-04-27T03:39:56.950Z,100740.47
2023-04-27T03:42:31.386Z,100732.28
2023-04-27T03:45:09.005Z,100741.53
2023-04-27T03:47:43.535Z,100735.09
2023-04-27T03:50:18.496Z,100749.50
2023-04-27T03:52:52.946Z,100750.16
2023-04-27T03:55:27.499Z,100749.78
2023-04-27T03:58:02.005Z,100751.75
2023-04-27T04:00:38.707Z,100755.41
2023-04-27T04:03:13.856Z,100752.88
2023-04-27T04:05:48.376Z,100760.28
2023-04-27T04:08:23.112Z,100760.75
2023-04-27T04:10:58.272Z,100765.25
2023-04-27T04:13:33.081Z,100761.34
2023-04-27T04:16:10.751Z,100755.56
2023-04-27T04:18:46.688Z,100759.50
2023-04-27T04:21:21.180Z,100761.81
2023-04-27T04:23:56.479Z,100752.59
2023-04-27T04:26:30.931Z,100759.66
2023-04-27T04:29:06.235Z,100761.91
2023-04-27T04:31:42.573Z,100760.44
2023-04-27T04:34:17.804Z,100776.34
2023-04-27T04:36:52.561Z,100756.41
2023-04-27T04:39:31.584Z,100764.00
2023-04-27T04:42:05.931Z,100774.25
2023-04-27T04:44:40.857Z,100776.69
2023-04-27T04:47:16.837Z,100788.06
2023-04-27T04:49:53.198Z,100795.41
2023-04-27T04:52:27.824Z,100802.50
2023-04-27T04:55:02.486Z,100806.97
2023-04-27T04:57:37.433Z,100795.06
2023-04-27T05:00:14.323Z,100796.53
2023-04-27T05:02:50.352Z,100802.44
2023-04-27T05:05:26.862Z,100800.38
2023-04-27T05:08:01.279Z,100800.06
2023-04-27T05:10:36.086Z,100802.19
2023-04-27T05:13:10.591Z,100815.97
2023-04-27T05:15:45.296Z,100814.22
2023-04-27T05:18:22.504Z,100820.50
2023-04-27T05:20:57.535Z,100825.06
2023-04-27T05:23:31.807Z,100820.72
2023-04-27T05:26:13.115Z,100828.78
2023-04-27T05:28:49.412Z,100817.53
2023-04-27T05:31:24.388Z,100812.31
2023-04-27T05:34:00.246Z,100813.56
2023-04-27T05:36:34.930Z,100821.16
2023-04-27T05:39:09.439Z,100821.34
2023-04-27T05:41:44.276Z,100825.06
2023-04-27T05:44:18.556Z,100828.75
2023-04-27T05:46:53.260Z,100825.78
2023-04-27T05:49:28.908Z,100827.88
2023-04-27T05:52:04.411Z,100831.94
2023-04-27T05:54:38.767Z,100838.00
2023-04-27T05:57:13.457Z,100830.47
2023-04-27T05:59:47.878Z,100835.69
2023-04-27T06:02:56.196Z,100832.47
2023-04-27T06:05:31.428Z,100832.47
2023-04-27T06:08:06.286Z,100845.91
2023-04-27T06:10:41.014Z,100824.63
2023-04-27T06:13:16.297Z,100836.87
2023-04-27T06:15:51.068Z,100834.34
2023-04-27T06:18:26.975Z,100838.59
2023-04-27T06:21:02.513Z,100843.00
2023-04-27T06:23:36.920Z,100847.75
2023-04-27T06:26:11.704Z,100842.81
2023-04-27T06:28:46.900Z,100841.03
2023-04-27T06:31:21.895Z,100840.59
2023-04-27T06:33:57.927Z,100832.69
2023-04-27T06:36:32.535Z,100839.28
2023-04-27T06:39:06.870Z,100844.03
2023-04-27T06:41:41.493Z,100840.94
2023-04-27T06:44:20.399Z,100841.22
2023-04-27T06:46:55.075Z,100853.22
2023-04-27T06:49:31.133Z,100849.00
2023-04-27T06:52:07.357Z,100849.12
2023-04-27T06:54:42.042Z,100853.75
2023-04-27T06:57:17.131Z,100848.47
2023-04-27T06:59:52.803Z,100847.81
2023-04-27T07:02:27.668Z,100844.59
2023-04-27T07:05:03.551Z,100846.75
2023-04-27T07:07:38.294Z,100844.72
2023-04-27T07:10:12.962Z,100846.16
2023-04-27T07:12:47.961Z,100848.44
2023-04-27T07:15:23.518Z,100843.94
2023-04-27T07:17:58.209Z,100849.22
2023-04-27T07:20:34.069Z,100847.00
2023-04-27T07:23:08.717Z,100845.16
2023-04-27T07:25:43.684Z,100852.66
2023-04-27T07:28:18.605Z,100846.00
2023-04-27T07:30:53.062Z,100847.37
2023-04-27T07:33:28.122Z,100839.38
2023-04-27T07:36:04.720Z,100844.66
2023-04-27T07:38:39.704Z,100851.00
2023-04-27T07:41:14.545Z,100845.16
2023-04-27T07:43:50.040Z,100852.75
2023-04-27T07:46:24.606Z,100849.75
2023-04-27T07:49:00.665Z,100859.72
2023-04-27T07:51:36.829Z,100862.16
2023-04-27T07:54:11.555Z,100860.19
2023-04-27T07:56:46.232Z,100856.78
2023-04-27T07:59:21.004Z,100854.25
2023-04-27T08:02:04.070Z,100860.00
2023-04-27T08:04:46.983Z,100855.31
2023-04-27T08:07:23.304Z,100866.59
2023-04-27T08:09:58.041Z,100857.75
2023-04-27T08:12:33.692Z,100847.03
2023-04-27T08:15:09.950Z,100844.53
2023-04-27T08:17:44.421Z,100855.41
2023-04-27T08:20:19.516Z,100844.25
2023-04-27T08:22:55.304Z,100850.16
2023-04-27T08:25:30.010Z,100860.13
2023-04-27T08:28:04.290Z,100840.50
2023-04-27T08:30:38.916Z,100851.25
2023-04-27T08:33:13.518Z,100857.50
2023-04-27T08:35:48.196Z,100846.97
2023-04-27T08:38:25.582Z,100851.84
2023-04-27T08:41:07.601Z,100860.44
2023-04-27T08:43:53.990Z,100849.88
2023-04-27T08:46:28.804Z,100856.50
2023-04-27T08:49:03.163Z,100853.44
2023-04-27T08:51:38.097Z,100865.25
2023-04-27T08:54:13.790Z,100853.63
2023-04-27T08:56:48.563Z,100857.44
2023-04-27T08:59:23.494Z,100851.81
2023-04-27T09:01:58.541Z,100846.00
2023-04-27T09:04:39.789Z,100842.00
2023-04-27T09:07:15.608Z,100839.00
2023-04-27T09:09:53.147Z,100836.63
2023-04-27T09:12:27.836Z,100833.56
2023-04-27T09:15:03.800Z,100833.63
2023-04-27T09:17:39.042Z,100828.44
2023-04-27T09:20:14.050Z,100828.50
2023-04-27T09:22:50.107Z,100831.22
2023-04-27T09:25:28.002Z,100849.12
2023-04-27T14:03:36.488Z,100723.00
2023-04-27T14:06:11.672Z,100723.00
2023-04-27T14:08:46.128Z,100735.53
2023-04-27T14:11:21.332Z,100743.28
2023-04-27T14:13:55.662Z,100752.09
2023-04-27T14:16:30.783Z,100745.31
2023-04-27T14:19:06.614Z,100729.97
2023-04-27T14:21:41.265Z,100751.47
2023-04-27T14:24:15.542Z,100753.91
2023-04-27T14:26:51.320Z,100749.66
2023-04-27T14:29:25.916Z,100740.12
2023-04-27T14:32:15.125Z,100731.72
2023-04-27T21:54:31.056Z,100948.56
2023-04-27T21:57:06.277Z,100948.56
2023-04-27T21:59:40.772Z,100956.91
2023-04-27T22:03:16.391Z,100959.31
2023-04-27T22:05:52.906Z,100959.31
2023-04-27T22:08:27.469Z,100970.78
2023-04-27T22:11:02.619Z,100970.69
2023-04-27T22:13:37.180Z,100962.81
2023-04-27T22:16:13.114Z,100957.97
2023-04-27T22:18:49.735Z,100957.66
2023-04-27T22:21:24.548Z,100966.22
2023-04-27T22:23:59.025Z,100971.16
2023-04-27T22:26:33.625Z,100975.06
2023-04-27T22:29:08.359Z,100978.63
2023-04-27T22:31:43.424Z,100981.38
2023-04-27T22:34:19.266Z,100978.78
2023-04-27T22:36:54.417Z,100974.25
2023-04-27T22:39:28.983Z,100968.28
2023-04-27T22:42:03.923Z,100980.03
2023-04-27T22:44:38.260Z,100987.91
2023-04-27T22:47:12.929Z,100978.91
2023-04-27T22:49:49.742Z,100986.34
2023-04-27T22:52:25.104Z,100985.56
2023-04-27T22:54:59.396Z,100991.06
2023-04-27T22:57:34.127Z,100990.84
2023-04-27T23:00:11.637Z,100981.84
2023-04-27T23:02:47.603Z,100986.41
2023-04-27T23:05:23.911Z,100991.06
2023-04-27T23:07:58.612Z,100991.06
2023-04-27T23:10:34.915Z,100994.13
2023-04-27T23:13:11.498Z,100997.66
2023-04-27T23:15:45.807Z,100983.25
2023-04-27T23:18:20.556Z,100976.84
2023-04-27T23:20:56.597Z,100977.00
2023-04-27T23:23:31.188Z,100980.63
2023-04-27T23:26:14.167Z,100989.78
2023-04-27T23:28:49.845Z,100982.25
2023-04-27T23:31:24.652Z,100987.34
2023-04-27T23:33:59.594Z,100977.22
2023-04-27T23:36:35.381Z,100990.50
2023-04-27T23:39:10.211Z,100981.41
2023-04-27T23:41:44.716Z,100981.47
2023-04-27T23:44:19.510Z,100977.59
2023-04-27T23:46:54.290Z,100991.06
2023-04-27T23:49:29.028Z,100988.69
2023-04-27T23:52:05.220Z,100981.72
2023-04-27T23:54:40.193Z,100987.00
2023-04-27T23:57:16.094Z,100986.75
2023-04-27T23:59:50.724Z,100988.91
